Time;durP1;ratioP1;P1;durP2;ratioP2;P2;SDS_P1;SDS_P2;PMS_P1;PMS_P2;Temp;Humidity;BMP_temperature;BMP_pressure;BME280_temperature;BME280_humidity;BME280_pressure;Samples;Min_cycle;Max_cycle;Signal;HPM_P1;HPM_P2
2023/12/23 00:00:27;;;;;;;3.10;1.30;;;;;;;8.55;47.49;97310.44;4941818;28;20035;-78
2023/12/23 00:02:52;;;;;;;1.73;1.23;;;;;;;8.53;47.44;97304.56;4941680;28;20498;-79
2023/12/23 00:05:18;;;;;;;2.40;1.50;;;;;;;8.46;47.49;97292.09;4975032;28;20039;-78
2023/12/23 00:07:44;;;;;;;2.05;1.50;;;;;;;8.50;47.01;97295.25;4941757;28;20041;-79
2023/12/23 00:10:10;;;;;;;2.40;1.30;;;;;;;8.47;47.19;97295.53;4941654;28;20035;-79
2023/12/23 00:12:35;;;;;;;4.70;1.50;;;;;;;8.46;47.13;97299.91;4941691;28;20033;-79
2023/12/23 00:15:01;;;;;;;1.95;1.30;;;;;;;8.41;46.87;97285.63;4975326;28;20046;-77
2023/12/23 00:17:26;;;;;;;1.90;1.35;;;;;;;8.43;46.92;97281.97;4957281;28;20137;-78
2023/12/23 00:19:52;;;;;;;2.83;1.60;;;;;;;8.42;46.92;97282.91;4957789;28;20042;-79
2023/12/23 00:22:17;;;;;;;2.72;1.70;;;;;;;8.41;46.86;97278.69;4974663;28;20422;-79
2023/12/23 00:24:43;;;;;;;2.55;1.30;;;;;;;8.40;46.73;97281.41;4974453;28;20035;-77
2023/12/23 00:27:09;;;;;;;2.70;1.40;;;;;;;8.38;46.94;97289.34;4956254;28;20082;-79
2023/12/23 00:29:34;;;;;;;2.22;1.27;;;;;;;8.36;46.37;97293.03;4974543;28;20023;-79
2023/12/23 00:32:00;;;;;;;3.25;1.27;;;;;;;8.36;46.60;97311.25;4950699;29;20090;-78
2023/12/23 00:34:25;;;;;;;2.45;1.40;;;;;;;8.34;46.68;97308.78;4940884;28;20399;-78
2023/12/23 00:36:51;;;;;;;3.03;1.38;;;;;;;8.34;46.37;97306.19;4946940;29;20043;-80
2023/12/23 00:39:16;;;;;;;3.22;1.35;;;;;;;8.33;46.38;97307.13;4955341;29;20027;-79
2023/12/23 00:41:42;;;;;;;1.90;1.30;;;;;;;8.33;47.05;97312.31;4953732;28;20040;-78
2023/12/23 00:44:07;;;;;;;2.70;1.42;;;;;;;8.32;46.74;97329.72;4941679;28;20031;-77
2023/12/23 00:46:34;;;;;;;2.15;1.38;;;;;;;8.31;46.63;97337.66;4941942;28;20038;-78
2023/12/23 00:48:59;;;;;;;3.92;1.40;;;;;;;8.25;46.87;97328.63;4957522;28;20053;-79
2023/12/23 00:51:25;;;;;;;5.88;1.40;;;;;;;8.26;46.97;97324.25;4941336;28;20479;-79
2023/12/23 00:53:50;;;;;;;2.85;1.40;;;;;;;8.29;46.95;97332.59;4941157;28;20023;-79
2023/12/23 00:56:22;;;;;;;3.15;1.58;;;;;;;8.28;46.54;97311.94;4941265;28;20137;-78
2023/12/23 00:58:48;;;;;;;2.28;1.30;;;;;;;8.25;46.55;97297.41;4925588;28;20137;-78
2023/12/23 01:01:13;;;;;;;2.47;1.40;;;;;;;8.27;46.78;97298.13;4924742;28;20051;-79
2023/12/23 01:03:39;;;;;;;2.45;1.42;;;;;;;8.28;46.69;97291.13;4941269;28;20026;-79
2023/12/23 01:06:05;;;;;;;2.40;1.50;;;;;;;8.23;46.41;97280.34;4956725;28;20412;-77
2023/12/23 01:08:30;;;;;;;4.18;1.30;;;;;;;8.26;46.51;97282.66;4925132;28;20053;-78
2023/12/23 01:10:56;;;;;;;2.00;1.25;;;;;;;8.22;46.59;97287.28;4940893;28;20042;-80
2023/12/23 01:13:21;;;;;;;2.67;1.42;;;;;;;8.22;46.49;97281.28;4940859;28;20034;-79
2023/12/23 01:15:47;;;;;;;2.42;1.42;;;;;;;8.24;46.21;97282.78;4957146;28;20446;-78
2023/12/23 01:18:13;;;;;;;3.30;1.90;;;;;;;8.22;46.19;97289.06;4956764;28;20038;-79
2023/12/23 01:20:40;;;;;;;4.90;2.25;;;;;;;8.20;46.52;97280.59;4956960;28;20501;-78
2023/12/23 01:23:05;;;;;;;4.40;2.40;;;;;;;8.18;46.75;97285.13;4941253;28;20495;-79
2023/12/23 01:25:30;;;;;;;4.00;2.30;;;;;;;8.19;46.48;97290.19;4953230;29;20066;-78
2023/12/23 01:28:00;;;;;;;5.50;3.00;;;;;;;8.19;46.60;97295.38;4952053;29;20519;-78
2023/12/23 01:30:25;;;;;;;5.47;2.85;;;;;;;8.20;46.52;97296.19;4954536;28;20027;-78
2023/12/23 01:32:51;;;;;;;5.20;3.10;;;;;;;8.20;46.25;97307.41;4937608;29;20043;-79
2023/12/23 01:35:17;;;;;;;7.38;3.15;;;;;;;8.16;46.58;97277.47;4952999;28;20102;-79
2023/12/23 01:37:42;;;;;;;4.32;2.67;;;;;;;8.20;46.22;97310.00;4937484;29;20480;-78
2023/12/23 01:40:08;;;;;;;5.97;3.30;;;;;;;8.20;46.50;97297.00;4953337;29;20090;-79
2023/12/23 01:42:36;;;;;;;4.97;2.80;;;;;;;8.19;46.43;97300.59;4954121;28;20027;-77
2023/12/23 01:45:01;;;;;;;5.10;2.58;;;;;;;8.13;46.39;97291.56;4937271;29;20051;-79
2023/12/23 01:47:27;;;;;;;5.00;2.70;;;;;;;8.17;46.41;97297.28;4953031;29;20502;-78
2023/12/23 01:49:52;;;;;;;5.78;3.40;;;;;;;8.15;46.58;97307.81;4936591;29;20043;-78
2023/12/23 01:52:18;;;;;;;7.55;4.20;;;;;;;8.16;46.87;97311.25;4953215;29;20027;-79
2023/12/23 01:54:43;;;;;;;7.43;4.10;;;;;;;8.15;46.26;97314.81;4954420;28;20396;-78
2023/12/23 01:57:09;;;;;;;6.82;4.10;;;;;;;8.15;46.50;97301.81;4952133;29;20111;-78
2023/12/23 01:59:34;;;;;;;7.03;3.97;;;;;;;8.13;46.20;97275.94;4937098;29;20035;-78
2023/12/23 02:02:00;;;;;;;7.10;3.97;;;;;;;8.10;46.26;97262.41;4937443;29;20027;-79
2023/12/23 02:04:26;;;;;;;5.90;3.30;;;;;;;8.12;46.27;97253.50;4937256;29;20035;-78
2023/12/23 02:06:51;;;;;;;5.50;3.42;;;;;;;8.09;45.95;97214.78;4921229;29;20039;-78
2023/12/23 02:09:16;;;;;;;5.65;3.28;;;;;;;8.13;46.53;97236.16;4936767;29;20090;-77
2023/12/23 02:12:06;;;;;;;6.35;3.00;;;;;;;8.12;46.24;97257.91;4954323;28;20086;-79
2023/12/23 02:14:41;;;;;;;6.57;3.10;;;;;;;8.11;46.07;97258.84;4922421;29;20127;-78
2023/12/23 02:17:08;;;;;;;4.68;3.08;;;;;;;8.11;46.16;97256.25;4953063;29;20041;-77
2023/12/23 02:19:33;;;;;;;4.40;2.70;;;;;;;8.09;46.20;97269.38;4937176;29;20058;-77
2023/12/23 02:21:59;;;;;;;5.10;2.95;;;;;;;8.09;46.29;97266.78;4952952;29;20510;-77
2023/12/23 02:24:24;;;;;;;4.45;2.45;;;;;;;8.08;46.06;97267.75;4954098;28;20031;-78
2023/12/23 02:26:52;;;;;;;4.43;2.60;;;;;;;8.05;46.01;97242.03;4952880;28;20577;-77
2023/12/23 02:29:18;;;;;;;4.87;2.77;;;;;;;8.09;46.06;97234.78;4937158;29;20162;-78
2023/12/23 02:31:43;;;;;;;3.60;2.33;;;;;;;8.11;45.90;97217.25;4936689;29;20039;-79
2023/12/23 02:34:08;;;;;;;3.90;2.28;;;;;;;8.09;45.86;97201.00;4954192;28;20031;-79
2023/12/23 02:36:34;;;;;;;4.00;2.40;;;;;;;8.12;46.03;97191.13;4952153;29;20054;-78
2023/12/23 02:38:59;;;;;;;3.92;1.90;;;;;;;8.16;45.86;97215.09;4952966;29;20159;-78
2023/12/23 02:41:25;;;;;;;3.10;1.90;;;;;;;8.16;46.34;97235.88;4954035;28;20487;-79
2023/12/23 02:43:50;;;;;;;3.15;1.88;;;;;;;8.19;46.04;97238.22;4952541;29;20046;-79
2023/12/23 02:46:16;;;;;;;5.13;1.60;;;;;;;8.20;46.01;97231.22;4937421;29;20479;-79
2023/12/23 02:48:41;;;;;;;3.63;1.60;;;;;;;8.20;46.18;97234.63;4956366;29;20030;-78
2023/12/23 02:51:09;;;;;;;2.65;1.75;;;;;;;8.21;45.62;97230.28;4957403;28;20035;-78
2023/12/23 02:53:34;;;;;;;2.85;1.55;;;;;;;8.21;45.96;97225.06;4924559;29;20066;-78
2023/12/23 02:55:59;;;;;;;2.67;1.67;;;;;;;8.15;45.67;97214.25;4957149;28;20062;-78
2023/12/23 02:58:25;;;;;;;3.25;1.70;;;;;;;8.22;45.60;97232.69;4939965;29;20086;-78
2023/12/23 03:00:50;;;;;;;2.30;1.50;;;;;;;8.19;45.66;97222.59;4956186;29;20062;-79
2023/12/23 03:03:16;;;;;;;2.42;1.33;;;;;;;8.22;45.29;97217.09;4955958;29;20027;-77
2023/12/23 03:05:41;;;;;;;1.67;1.25;;;;;;;8.22;45.24;97196.31;4956984;28;20514;-78
2023/12/23 03:08:07;;;;;;;3.35;1.40;;;;;;;8.19;45.61;97193.19;4954729;29;20050;-78
2023/12/23 03:10:32;;;;;;;3.47;1.30;;;;;;;8.24;45.38;97198.75;4955952;29;20467;-79
2023/12/23 03:12:58;;;;;;;2.50;1.42;;;;;;;8.26;45.45;97199.47;4939750;29;20038;-78
2023/12/23 03:15:23;;;;;;;2.60;1.33;;;;;;;8.28;45.28;97202.75;4955657;29;20407;-78
2023/12/23 03:17:49;;;;;;;2.72;1.55;;;;;;;8.28;45.35;97200.13;4939793;29;20038;-78
2023/12/23 03:20:14;;;;;;;5.75;1.35;;;;;;;8.23;45.15;97187.56;4955491;29;20034;-77
2023/12/23 03:22:40;;;;;;;1.88;1.02;;;;;;;8.28;45.01;97200.13;4939444;29;20456;-79
2023/12/23 03:25:06;;;;;;;1.80;1.10;;;;;;;8.29;45.30;97207.00;4939473;28;20047;-78
2023/12/23 03:27:32;;;;;;;1.73;1.00;;;;;;;8.27;45.00;97203.69;4942333;28;20415;-78
2023/12/23 03:29:57;;;;;;;2.45;0.95;;;;;;;8.24;44.96;97197.00;4958198;28;20039;-77
2023/12/23 03:32:23;;;;;;;1.85;1.13;;;;;;;8.25;44.94;97208.22;4958429;28;20042;-78
2023/12/23 03:34:48;;;;;;;1.65;1.00;;;;;;;8.23;45.04;97205.75;4942648;28;20042;-77
2023/12/23 03:37:14;;;;;;;3.00;1.25;;;;;;;8.19;45.17;97193.19;4926310;28;20049;-78
2023/12/23 03:39:39;;;;;;;1.77;1.02;;;;;;;8.22;45.29;97201.50;4941602;28;20046;-78
2023/12/23 03:42:05;;;;;;;2.80;1.20;;;;;;;8.23;44.79;97199.75;4926637;28;20066;-78
2023/12/23 03:44:30;;;;;;;2.63;1.30;;;;;;;8.21;44.29;97197.28;4976234;28;20043;-77
2023/12/23 03:46:56;;;;;;;2.75;1.30;;;;;;;8.20;44.32;97210.41;4958363;28;20035;-77
2023/12/23 03:49:21;;;;;;;2.50;1.38;;;;;;;8.19;44.06;97204.41;4925130;28;20055;-78
2023/12/23 03:51:47;;;;;;;2.70;1.30;;;;;;;8.13;44.28;97187.59;4958171;28;20039;-77
2023/12/23 03:54:12;;;;;;;2.47;1.55;;;;;;;8.11;44.47;97171.31;4941713;28;20050;-77
2023/12/23 03:56:38;;;;;;;3.53;1.50;;;;;;;8.07;44.46;97163.94;4942419;28;20049;-78
2023/12/23 03:59:03;;;;;;;4.47;2.08;;;;;;;8.05;44.34;97207.41;4942214;28;20427;-78
2023/12/23 04:01:29;;;;;;;2.83;1.50;;;;;;;7.92;44.38;97194.72;4975362;28;20042;-77
2023/12/23 04:03:55;;;;;;;3.05;1.80;;;;;;;7.81;44.92;97194.88;4942108;28;20478;-77
2023/12/23 04:06:20;;;;;;;3.03;1.85;;;;;;;7.82;44.64;97199.91;4941562;28;20038;-77
2023/12/23 04:08:45;;;;;;;2.70;1.65;;;;;;;7.77;45.32;97202.13;4942378;28;20039;-78
2023/12/23 04:11:11;;;;;;;4.50;1.65;;;;;;;7.73;45.28;97209.38;4958102;28;20047;-79
2023/12/23 04:13:37;;;;;;;3.25;1.70;;;;;;;7.68;45.26;97206.34;4941591;28;20510;-79
2023/12/23 04:16:04;;;;;;;2.95;1.80;;;;;;;7.60;45.84;97193.22;4942050;28;20034;-78
2023/12/23 04:18:29;;;;;;;3.25;1.80;;;;;;;7.57;45.63;97190.91;4941842;28;20029;-77
2023/12/23 04:20:55;;;;;;;3.03;1.67;;;;;;;7.57;46.32;97196.94;4941809;28;20045;-78
2023/12/23 04:23:20;;;;;;;3.70;2.10;;;;;;;7.57;46.21;97203.88;4957609;28;20029;-78
2023/12/23 04:25:46;;;;;;;2.78;1.80;;;;;;;7.53;45.97;97199.94;4941470;28;20082;-78
2023/12/23 04:28:12;;;;;;;3.10;2.08;;;;;;;7.50;46.54;97201.00;4957235;28;20049;-78
2023/12/23 04:30:38;;;;;;;4.47;1.92;;;;;;;7.50;46.49;97187.22;4956734;28;20034;-79
2023/12/23 04:33:03;;;;;;;3.03;1.75;;;;;;;7.48;47.01;97160.53;4941865;28;20037;-77
2023/12/23 04:35:29;;;;;;;4.05;2.00;;;;;;;7.43;46.67;97156.59;4941683;28;20474;-79
2023/12/23 04:37:55;;;;;;;3.17;1.80;;;;;;;7.45;46.78;97179.00;4957614;28;20518;-78
2023/12/23 04:40:20;;;;;;;4.55;2.20;;;;;;;7.42;46.55;97178.31;4957876;28;20039;-77
2023/12/23 04:42:46;;;;;;;5.45;1.90;;;;;;;7.43;47.06;97174.78;4957213;28;20407;-78
2023/12/23 04:45:11;;;;;;;3.95;1.95;;;;;;;7.36;47.19;97172.84;4940762;28;20070;-78
2023/12/23 04:47:37;;;;;;;2.92;1.83;;;;;;;7.37;46.92;97188.28;4941117;28;20030;-78
2023/12/23 04:50:03;;;;;;;5.10;1.90;;;;;;;7.39;47.11;97182.97;4940248;28;20041;-78
2023/12/23 04:52:29;;;;;;;2.92;1.83;;;;;;;7.38;47.22;97176.94;4941515;28;20530;-78
2023/12/23 04:54:55;;;;;;;3.15;1.90;;;;;;;7.37;47.43;97177.91;4974374;28;20038;-77
2023/12/23 04:57:20;;;;;;;3.33;1.85;;;;;;;7.30;47.32;97163.00;4957040;28;20030;-78
2023/12/23 04:59:46;;;;;;;3.78;2.10;;;;;;;7.33;47.14;97163.53;4925099;28;20105;-79
2023/12/23 05:02:11;;;;;;;3.05;1.75;;;;;;;7.33;47.69;97168.75;4973161;28;20410;-78
2023/12/23 05:04:37;;;;;;;3.08;1.90;;;;;;;7.26;47.70;97175.44;4956079;28;20069;-78
2023/12/23 05:07:02;;;;;;;3.83;2.13;;;;;;;7.26;47.44;97183.22;4920321;29;20411;-78
2023/12/23 05:09:28;;;;;;;5.60;2.30;;;;;;;7.21;47.54;97164.63;4923928;28;20050;-78
2023/12/23 05:11:53;;;;;;;5.68;2.10;;;;;;;7.24;47.33;97164.34;4956609;28;20034;-78
2023/12/23 05:14:19;;;;;;;7.05;2.17;;;;;;;7.21;47.93;97173.25;4956591;28;20065;-79
2023/12/23 05:16:44;;;;;;;3.58;2.22;;;;;;;7.20;47.86;97183.75;4940594;28;20049;-76
2023/12/23 05:19:10;;;;;;;4.55;2.50;;;;;;;7.18;47.97;97185.66;4924098;28;20043;-78
2023/12/23 05:21:35;;;;;;;6.57;3.00;;;;;;;7.15;47.55;97171.19;4940517;28;20027;-77
2023/12/23 05:24:01;;;;;;;6.25;2.70;;;;;;;7.16;48.07;97177.19;4940347;28;20038;-78
2023/12/23 05:26:26;;;;;;;4.13;2.40;;;;;;;7.16;48.37;97166.81;4952924;29;20420;-78
2023/12/23 05:28:52;;;;;;;5.97;2.40;;;;;;;7.09;48.12;97160.53;4954529;28;20051;-77
2023/12/23 05:31:17;;;;;;;6.35;2.63;;;;;;;7.12;48.20;97163.66;4937191;29;20118;-79
2023/12/23 05:33:43;;;;;;;5.13;2.55;;;;;;;7.12;47.94;97175.81;4936986;29;20388;-79
2023/12/23 05:36:08;;;;;;;4.47;2.47;;;;;;;7.03;47.97;97164.47;4952805;29;20093;-78
2023/12/23 05:38:34;;;;;;;10.63;2.80;;;;;;;7.04;48.27;97176.50;4937213;29;20069;-80
2023/12/23 05:41:00;;;;;;;5.95;2.60;;;;;;;7.04;48.74;97166.91;4937212;29;20028;-80
2023/12/23 05:43:26;;;;;;;3.90;2.45;;;;;;;7.03;48.59;97175.66;4951133;29;20035;-79
2023/12/23 05:45:51;;;;;;;3.25;2.20;;;;;;;7.03;47.97;97175.66;4936357;29;20054;-80
2023/12/23 05:48:17;;;;;;;6.10;2.55;;;;;;;7.03;48.00;97172.25;4952854;28;20039;-79
2023/12/23 05:50:42;;;;;;;7.70;2.42;;;;;;;7.01;48.12;97161.19;4952168;29;20109;-80
2023/12/23 05:53:08;;;;;;;3.97;2.40;;;;;;;7.06;48.43;97171.97;4920191;29;20043;-81
2023/12/23 05:55:33;;;;;;;6.85;2.40;;;;;;;7.05;48.10;97168.56;4952961;29;20070;-80
2023/12/23 05:57:59;;;;;;;5.78;2.30;;;;;;;7.06;48.51;97187.53;4936797;29;20039;-80
2023/12/23 06:00:24;;;;;;;5.30;2.58;;;;;;;7.04;48.38;97181.69;4953151;29;20091;-79
2023/12/23 06:02:50;;;;;;;3.42;2.10;;;;;;;7.08;48.72;97180.44;4936773;29;20046;-79
2023/12/23 06:05:15;;;;;;;6.60;2.42;;;;;;;7.11;48.70;97169.78;4936871;29;20483;-79
2023/12/23 06:07:41;;;;;;;4.78;2.47;;;;;;;7.49;47.87;97172.59;4952708;29;20046;-80
2023/12/23 06:10:07;;;;;;;14.43;2.90;;;;;;;7.46;47.80;97154.69;4936967;29;20038;-80
2023/12/23 06:12:32;;;;;;;4.85;2.65;;;;;;;7.57;47.73;97159.72;4920684;29;20042;-79
2023/12/23 06:14:58;;;;;;;5.47;2.55;;;;;;;9.21;44.52;97159.38;4920878;29;20031;-78
2023/12/23 06:17:25;;;;;;;6.72;2.90;;;;;;;10.06;42.69;97152.94;4950885;29;20045;-78
2023/12/23 06:19:50;;;;;;;7.20;3.00;;;;;;;9.33;43.84;97144.38;4936489;29;20027;-78
2023/12/23 06:22:15;;;;;;;4.65;2.90;;;;;;;10.61;41.86;97159.63;4939163;29;20103;-79
2023/12/23 06:24:41;;;;;;;7.32;3.22;;;;;;;12.15;38.80;97145.41;4940346;29;20078;-79
2023/12/23 06:27:06;;;;;;;6.40;3.40;;;;;;;11.25;39.93;97160.03;4940139;29;20063;-79
2023/12/23 06:29:32;;;;;;;5.82;3.63;;;;;;;12.85;37.43;97152.53;4954660;29;20122;-79
2023/12/23 06:31:59;;;;;;;6.38;3.60;;;;;;;14.30;34.85;97167.63;4957667;28;20039;-81
2023/12/23 06:34:25;;;;;;;7.25;3.55;;;;;;;14.40;34.69;97160.28;4934751;29;20039;-79
2023/12/23 06:36:50;;;;;;;7.07;3.65;;;;;;;16.12;32.39;97155.59;4936568;29;20044;-79
2023/12/23 06:39:16;;;;;;;6.43;3.80;;;;;;;16.35;31.67;97136.88;4924194;29;20027;-79
2023/12/23 06:41:41;;;;;;;5.53;3.38;;;;;;;15.24;32.83;97138.13;4939607;29;20479;-78
2023/12/23 06:44:07;;;;;;;7.60;4.10;;;;;;;14.96;32.88;97124.88;4955470;29;20043;-78
2023/12/23 06:46:32;;;;;;;7.88;4.65;;;;;;;14.64;33.52;97138.25;4939618;29;20562;-78
2023/12/23 06:48:58;;;;;;;8.57;4.63;;;;;;;15.33;32.72;97136.22;4939334;29;20484;-79
2023/12/23 06:51:23;;;;;;;9.50;5.03;;;;;;;16.93;30.75;97126.06;4938559;29;20076;-80
2023/12/23 06:53:49;;;;;;;8.32;4.70;;;;;;;17.84;29.76;97122.22;4906937;29;20062;-79
2023/12/23 06:56:14;;;;;;;8.45;5.13;;;;;;;18.34;29.03;97125.22;4908818;29;20044;-79
2023/12/23 06:58:40;;;;;;;10.70;5.15;;;;;;;18.10;29.42;97120.59;4942189;29;20547;-80
2023/12/23 07:01:05;;;;;;;12.77;5.22;;;;;;;18.49;28.92;97130.28;4956791;28;20051;-80
2023/12/23 07:03:31;;;;;;;7.18;5.00;;;;;;;18.72;28.95;97134.28;4939808;29;20034;-77
2023/12/23 07:05:57;;;;;;;4.38;2.15;;;;;;;18.96;39.23;97127.50;4960285;29;20039;-80
2023/12/23 07:08:22;;;;;;;6.53;2.00;;;;;;;19.37;39.64;97136.06;4958041;28;20035;-71
2023/12/23 07:10:49;;;;;;;4.57;2.70;;;;;;;19.58;37.00;97116.41;4955610;29;20035;-72
2023/12/23 07:13:14;;;;;;;7.90;2.72;;;;;;;19.81;34.05;97145.78;4923514;29;20563;-75
2023/12/23 07:15:40;;;;;;;5.80;2.72;;;;;;;19.15;35.16;97139.84;4954945;29;20042;-72
2023/12/23 07:18:06;;;;;;;5.50;2.38;;;;;;;18.46;35.96;97141.28;4956797;28;20380;-78
2023/12/23 07:20:32;;;;;;;6.05;3.00;;;;;;;17.89;38.98;97138.28;4940219;29;20035;-78
2023/12/23 07:22:57;;;;;;;4.25;2.88;;;;;;;17.66;37.57;97114.88;4939863;29;20034;-77
2023/12/23 07:25:23;;;;;;;8.98;2.67;;;;;;;18.33;39.98;97083.16;4958998;28;20054;-75
2023/12/23 07:27:48;;;;;;;4.50;2.60;;;;;;;18.82;37.49;97102.97;4942311;28;20062;-74
2023/12/23 07:30:14;;;;;;;7.25;3.40;;;;;;;19.13;34.63;97101.41;4942048;28;20502;-75
2023/12/23 07:32:40;;;;;;;12.07;3.38;;;;;;;18.46;33.82;97106.94;4941610;28;20039;-73
2023/12/23 07:35:06;;;;;;;7.82;2.90;;;;;;;18.67;36.08;97099.75;4958993;28;20089;-75
2023/12/23 07:37:31;;;;;;;5.13;2.70;;;;;;;19.13;30.58;97123.41;4958604;28;20475;-72
2023/12/23 07:39:57;;;;;;;7.47;2.97;;;;;;;19.45;29.75;97112.00;4958376;28;20471;-75
2023/12/23 07:42:22;;;;;;;5.65;2.47;;;;;;;19.82;28.33;97104.25;4958458;28;20026;-74
2023/12/23 07:44:48;;;;;;;4.95;2.30;;;;;;;20.10;32.70;97110.91;4942249;28;20490;-73
2023/12/23 07:47:13;;;;;;;6.63;2.00;;;;;;;20.27;26.27;97092.63;4926690;28;20165;-71
2023/12/23 07:49:39;;;;;;;4.13;1.80;;;;;;;20.37;25.63;97093.75;4941386;28;20039;-72
2023/12/23 07:52:05;;;;;;;5.30;1.85;;;;;;;20.60;25.64;97092.28;4941705;28;20070;-75
2023/12/23 07:54:31;;;;;;;3.13;1.80;;;;;;;20.89;27.86;97113.78;4941752;28;20082;-84
2023/12/23 07:56:57;;;;;;;2.97;1.48;;;;;;;21.12;29.70;97100.63;4976738;28;20030;-79
2023/12/23 07:59:22;;;;;;;5.20;1.83;;;;;;;21.43;31.36;97114.72;4943015;28;20031;-78
2023/12/23 08:01:47;;;;;;;4.53;1.60;;;;;;;21.72;28.22;97116.78;4937039;28;20035;-76
2023/12/23 08:04:13;;;;;;;4.57;1.50;;;;;;;21.87;23.96;97117.16;4942626;28;20065;-78
2023/12/23 08:06:39;;;;;;;3.55;1.83;;;;;;;21.92;24.52;97124.41;4958681;28;20113;-76
2023/12/23 08:09:05;;;;;;;6.63;1.67;;;;;;;21.98;23.99;97126.16;4958208;28;20086;-75
2023/12/23 08:11:30;;;;;;;7.15;1.83;;;;;;;22.32;25.88;97131.75;4941568;28;20049;-75
2023/12/23 08:13:56;;;;;;;6.78;2.10;;;;;;;22.50;23.36;97139.63;4957736;28;20481;-77
2023/12/23 08:16:21;;;;;;;6.28;2.10;;;;;;;22.52;24.02;97142.03;4975219;28;20038;-78
2023/12/23 08:18:47;;;;;;;5.57;2.10;;;;;;;22.95;25.35;97151.44;4941906;28;20089;-80
2023/12/23 08:21:12;;;;;;;2.67;1.50;;;;;;;23.17;22.50;97146.31;4941720;28;20031;-79
2023/12/23 08:23:38;;;;;;;6.90;1.40;;;;;;;23.31;20.90;97149.50;4941742;28;20121;-77
2023/12/23 08:26:03;;;;;;;4.25;1.48;;;;;;;23.46;21.01;97144.44;4941032;28;20046;-70
2023/12/23 08:28:29;;;;;;;7.43;1.77;;;;;;;23.79;22.76;97155.41;4925354;28;20031;-70
2023/12/23 08:30:55;;;;;;;3.42;1.30;;;;;;;24.01;21.37;97142.22;4956126;28;20033;-69
2023/12/23 08:33:20;;;;;;;3.63;1.67;;;;;;;24.30;20.51;97153.56;4941485;28;20034;-72
2023/12/23 08:35:46;;;;;;;4.35;1.42;;;;;;;24.47;19.58;97156.22;4957401;28;20053;-75
2023/12/23 08:38:11;;;;;;;3.97;1.27;;;;;;;24.67;19.37;97179.75;4940708;28;20047;-74
2023/12/23 08:40:37;;;;;;;4.40;1.20;;;;;;;24.87;19.09;97181.06;4925446;28;20045;-74
2023/12/23 08:43:02;;;;;;;8.43;1.35;;;;;;;25.09;18.89;97170.38;4955341;28;20046;-75
2023/12/23 08:45:28;;;;;;;3.67;1.38;;;;;;;25.33;19.39;97175.50;4940424;28;20126;-77
2023/12/23 08:47:53;;;;;;;7.35;1.98;;;;;;;25.67;19.04;97175.31;4918735;28;20062;-77
2023/12/23 08:50:20;;;;;;;12.27;2.55;;;;;;;26.01;22.75;97173.22;4935921;28;20083;-71
2023/12/23 08:52:46;;;;;;;10.82;2.80;;;;;;;26.40;22.68;97159.63;4909738;29;20031;-72
2023/12/23 08:55:11;;;;;;;6.85;2.45;;;;;;;26.81;21.11;97164.44;4921869;29;20483;-72
2023/12/23 08:57:37;;;;;;;7.82;3.17;;;;;;;27.42;20.64;97190.66;4954471;29;20042;-73
2023/12/23 09:00:05;;;;;;;8.48;2.75;;;;;;;27.90;21.03;97204.69;4949089;28;20124;-72
2023/12/23 09:02:30;;;;;;;13.32;3.53;;;;;;;28.24;23.40;97206.88;4957164;28;20411;-72
2023/12/23 09:04:56;;;;;;;8.00;2.88;;;;;;;28.63;21.44;97214.38;4957009;28;20528;-83
2023/12/23 09:07:21;;;;;;;11.95;3.13;;;;;;;28.62;22.09;97206.59;4925036;28;20031;-78
2023/12/23 09:09:47;;;;;;;6.03;1.92;;;;;;;28.27;18.72;97198.28;4940462;28;20498;-77
2023/12/23 09:12:12;;;;;;;4.45;2.00;;;;;;;27.69;19.25;97190.47;4953523;28;20038;-74
2023/12/23 09:14:38;;;;;;;5.72;1.92;;;;;;;27.69;19.35;97214.59;4956006;28;20047;-75
2023/12/23 09:17:04;;;;;;;6.07;2.13;;;;;;;27.69;19.41;97221.81;4925266;28;20046;-74
2023/12/23 09:19:29;;;;;;;9.45;1.83;;;;;;;27.17;19.43;97266.34;4924712;28;20498;-83
2023/12/23 09:21:55;;;;;;;9.20;1.63;;;;;;;26.13;20.67;97263.97;4924858;28;20027;-73
2023/12/23 09:24:21;;;;;;;5.35;2.10;;;;;;;25.33;23.25;97285.00;4955931;28;20039;-76
2023/12/23 09:26:46;;;;;;;7.50;2.08;;;;;;;24.54;24.35;97316.09;4923607;28;20046;-76
2023/12/23 09:29:12;;;;;;;10.57;2.65;;;;;;;23.93;29.48;97334.47;4940424;28;20030;-75
2023/12/23 09:31:37;;;;;;;7.55;2.38;;;;;;;23.38;33.41;97349.84;4924281;28;20069;-74
2023/12/23 09:34:03;;;;;;;9.40;1.80;;;;;;;23.20;32.48;97358.78;4956374;28;20487;-73
2023/12/23 09:36:28;;;;;;;10.63;1.60;;;;;;;22.59;32.84;97345.63;4940396;28;20101;-74
2023/12/23 09:38:54;;;;;;;6.25;1.77;;;;;;;21.90;34.67;97352.28;4940465;28;20037;-70
2023/12/23 09:41:19;;;;;;;4.63;1.20;;;;;;;21.43;32.76;97393.44;4940280;28;20035;-73
2023/12/23 09:43:45;;;;;;;16.00;1.70;;;;;;;20.91;37.38;97395.53;4917363;29;20752;-87
2023/12/23 09:46:12;;;;;;;3.00;0.85;;;;;;;20.43;34.40;97407.44;4923854;29;20031;-79
2023/12/23 09:48:39;;;;;;;3.40;0.77;;;;;;;20.08;33.52;97428.19;4937753;29;20487;-80
2023/12/23 09:51:04;;;;;;;5.53;0.70;;;;;;;19.96;32.96;97420.91;4923501;29;20051;-85
2023/12/23 09:53:30;;;;;;;1.25;0.40;;;;;;;19.75;32.79;97444.97;4928423;28;20525;-85
2023/12/23 09:55:57;;;;;;;1.75;0.40;;;;;;;19.28;33.45;97445.84;4943938;28;20026;-85
2023/12/23 09:58:23;;;;;;;1.98;0.90;;;;;;;19.04;33.88;97451.72;4944756;28;20030;-89
2023/12/23 10:00:48;;;;;;;4.07;1.85;;;;;;;18.76;34.33;97445.59;4960598;28;20053;-76
2023/12/23 10:03:14;;;;;;;3.55;2.10;;;;;;;18.49;34.98;97428.88;4958312;28;20054;-80
2023/12/23 10:05:43;;;;;;;6.97;3.78;;;;;;;18.49;35.06;97435.97;4927007;28;20425;-77
2023/12/23 10:08:08;;;;;;;9.73;4.05;;;;;;;18.69;41.11;97426.28;4936463;28;20603;-76
2023/12/23 10:10:34;;;;;;;5.68;3.88;;;;;;;18.75;38.12;97443.94;4933157;28;20059;-77
2023/12/23 10:12:59;;;;;;;5.93;3.88;;;;;;;18.99;37.01;97454.97;4918826;28;20438;-76
2023/12/23 10:15:25;;;;;;;5.70;3.22;;;;;;;18.86;36.47;97462.91;4938288;28;20422;-74
2023/12/23 10:17:52;;;;;;;5.53;2.90;;;;;;;18.35;36.84;97470.28;4924349;28;20081;-76
2023/12/23 10:20:17;;;;;;;5.60;3.00;;;;;;;18.16;36.71;97471.00;4922078;29;20065;-75
2023/12/23 10:22:46;;;;;;;5.68;3.17;;;;;;;17.99;36.63;97447.56;4958982;28;20070;-75
2023/12/23 10:25:12;;;;;;;4.10;2.85;;;;;;;17.82;36.61;97435.66;4926928;28;20041;-78
2023/12/23 10:27:41;;;;;;;4.65;2.50;;;;;;;17.70;45.57;97428.31;4942957;28;20727;-78
2023/12/23 10:30:11;;;;;;;7.15;2.58;;;;;;;17.92;49.34;97477.56;4947167;28;20047;-79
2023/12/23 10:32:38;;;;;;;5.75;2.70;;;;;;;17.90;49.02;97470.69;4952033;28;20503;-77
2023/12/23 10:35:08;;;;;;;6.45;2.40;;;;;;;17.88;48.08;97466.59;4917013;28;20494;-79
2023/12/23 10:37:34;;;;;;;6.82;2.88;;;;;;;17.86;48.21;97495.00;4941568;28;20037;-82
2023/12/23 10:40:15;;;;;;;4.93;2.58;;;;;;;17.79;47.92;97486.22;4926776;28;20042;-80
2023/12/23 10:42:41;;;;;;;4.72;2.40;;;;;;;17.71;48.19;97476.63;4940230;29;20034;-78
2023/12/23 10:45:07;;;;;;;13.02;4.00;;;;;;;17.58;48.32;97456.25;4939723;28;20121;-77
2023/12/23 10:47:33;;;;;;;17.38;4.15;;;;;;;17.69;47.16;97470.72;4926959;28;20126;-78
2023/12/23 10:49:58;;;;;;;12.43;3.95;;;;;;;17.53;46.58;97479.75;4926106;28;20586;-79
2023/12/23 10:52:24;;;;;;;12.95;3.83;;;;;;;17.45;47.08;97487.81;4920224;29;20039;-77
2023/12/23 10:54:50;;;;;;;10.68;2.85;;;;;;;17.43;46.04;97468.75;4923110;29;20027;-81
2023/12/23 10:57:16;;;;;;;7.00;2.70;;;;;;;17.29;45.79;97492.34;4925772;28;20110;-79
2023/12/23 10:59:41;;;;;;;7.85;2.63;;;;;;;17.25;46.41;97500.84;4921963;29;20495;-78
2023/12/23 11:02:31;;;;;;;7.63;2.47;;;;;;;17.24;46.76;97481.56;4932504;28;20039;-80
2023/12/23 11:04:58;;;;;;;6.20;2.55;;;;;;;17.26;47.29;97450.53;4937772;29;20062;-78
2023/12/23 11:07:37;;;;;;;5.47;2.20;;;;;;;17.56;47.04;97497.03;4922949;29;20039;-79
2023/12/23 11:10:03;;;;;;;5.18;2.33;;;;;;;17.89;46.24;97498.09;4923899;29;20028;-84
2023/12/23 11:12:29;;;;;;;5.85;2.67;;;;;;;18.19;46.06;97499.69;4917119;28;20035;-81
2023/12/23 11:14:55;;;;;;;7.35;2.55;;;;;;;18.23;46.02;97483.25;4942090;28;20023;-82
2023/12/23 11:17:25;;;;;;;6.38;2.47;;;;;;;18.07;46.99;97483.56;4941791;28;20062;-81
2023/12/23 11:19:50;;;;;;;5.32;1.98;;;;;;;18.10;46.87;97472.59;4942101;28;20027;-82
2023/12/23 11:22:30;;;;;;;3.80;1.90;;;;;;;18.26;46.58;97467.00;4941231;28;20043;-79
2023/12/23 11:24:55;;;;;;;2.60;1.70;;;;;;;18.55;45.73;97474.78;4959423;28;20038;-80
2023/12/23 11:27:34;;;;;;;4.47;1.95;;;;;;;18.73;44.94;97476.91;4926154;28;20050;-80
2023/12/23 11:30:07;;;;;;;4.47;1.77;;;;;;;18.86;44.45;97478.78;4942062;28;20137;-80